createdAt,value
2023-07-07T00:00:00.143Z, 0
2023-07-07T00:02:00.089Z, 0
2023-07-07T00:04:00.150Z, 0
2023-07-07T00:06:00.316Z, 0
2023-07-07T00:08:00.062Z, 0
2023-07-07T00:10:00.087Z, 0
2023-07-07T00:12:00.081Z, 0
2023-07-07T00:14:00.437Z, 0
2023-07-07T00:16:00.079Z, 0
2023-07-07T00:18:00.125Z, 0
2023-07-07T00:20:00.077Z, 0
2023-07-07T00:22:00.068Z, 0
2023-07-07T00:24:00.083Z, 0
2023-07-07T00:26:00.055Z, 0
2023-07-07T00:28:00.056Z, 0
2023-07-07T00:30:00.139Z, 0
2023-07-07T00:32:00.101Z, 0
2023-07-07T00:34:00.070Z, 0
2023-07-07T00:36:00.086Z, 0
2023-07-07T00:38:00.069Z, 0
2023-07-07T00:40:00.067Z, 0
2023-07-07T00:42:00.076Z, 0
2023-07-07T00:44:00.062Z, 0
2023-07-07T00:46:00.132Z, 0
2023-07-07T00:48:00.231Z, 0
2023-07-07T00:50:00.087Z, 0
2023-07-07T00:52:00.081Z, 0
2023-07-07T00:54:00.084Z, 0
2023-07-07T00:56:00.073Z, 0
2023-07-07T00:58:00.055Z, 0
2023-07-07T01:00:00.078Z, 0
2023-07-07T01:02:00.131Z, 0
2023-07-07T01:04:00.079Z, 0
2023-07-07T01:06:00.084Z, 0
2023-07-07T01:08:00.060Z, 0
2023-07-07T01:10:00.079Z, 0
2023-07-07T01:12:00.103Z, 0
2023-07-07T01:14:00.082Z, 0
2023-07-07T01:16:00.166Z, 0
2023-07-07T01:18:00.133Z, 0
2023-07-07T01:20:00.179Z, 0
2023-07-07T01:22:00.065Z, 0
2023-07-07T01:24:00.108Z, 0
2023-07-07T01:26:00.088Z, 0
2023-07-07T01:28:00.075Z, 0
2023-07-07T01:30:00.131Z, 0
2023-07-07T01:32:00.140Z, 0
2023-07-07T01:34:00.074Z, 0
2023-07-07T01:36:00.089Z, 0
2023-07-07T01:38:00.068Z, 0
2023-07-07T01:40:00.168Z, 0
2023-07-07T01:42:00.127Z, 0
2023-07-07T01:44:00.078Z, 0
2023-07-07T01:46:00.080Z, 0
2023-07-07T01:48:00.139Z, 0
2023-07-07T01:50:00.088Z, 0
2023-07-07T01:52:00.086Z, 0
2023-07-07T01:54:00.102Z, 0
2023-07-07T01:56:00.091Z, 0
2023-07-07T01:58:00.091Z, 0
2023-07-07T02:00:00.088Z, 0
2023-07-07T02:02:00.066Z, 0
2023-07-07T02:04:00.070Z, 0
2023-07-07T02:06:00.080Z, 0
2023-07-07T02:08:00.066Z, 0
2023-07-07T02:10:00.064Z, 0
2023-07-07T02:12:00.105Z, 0
2023-07-07T02:14:00.084Z, 0
2023-07-07T02:16:00.054Z, 0
2023-07-07T02:18:00.158Z, 0
2023-07-07T02:20:00.064Z, 0
2023-07-07T02:22:00.049Z, 0
2023-07-07T02:24:00.177Z, 0
2023-07-07T02:26:00.055Z, 0
2023-07-07T02:28:00.084Z, 0
2023-07-07T02:30:00.185Z, 0
2023-07-07T02:32:00.098Z, 0
2023-07-07T02:34:00.048Z, 0
2023-07-07T02:36:00.072Z, 0
2023-07-07T02:38:00.039Z, 0
2023-07-07T02:40:00.050Z, 0
2023-07-07T02:42:00.087Z, 0
2023-07-07T02:44:00.040Z, 0
2023-07-07T02:46:00.051Z, 0
2023-07-07T02:48:00.094Z, 0
2023-07-07T02:50:00.045Z, 0
2023-07-07T02:52:00.062Z, 0
2023-07-07T02:54:00.054Z, 0
2023-07-07T02:56:00.053Z, 0
2023-07-07T02:58:00.043Z, 0
2023-07-07T03:00:00.067Z, 0
2023-07-07T03:02:00.048Z, 0
2023-07-07T03:04:00.265Z, 0
2023-07-07T03:06:00.053Z, 0
2023-07-07T03:08:00.186Z, 0
2023-07-07T03:10:00.048Z, 0
2023-07-07T03:12:00.054Z, 0
2023-07-07T03:14:00.148Z, 0
2023-07-07T03:16:00.032Z, 0.001
2023-07-07T03:18:00.113Z, 0.001
2023-07-07T03:20:01.991Z, 0.001
2023-07-07T03:22:00.029Z, 0.001
2023-07-07T03:24:00.056Z, 0.001
2023-07-07T03:26:00.070Z, 0.001
2023-07-07T03:28:00.031Z, 0.001
2023-07-07T03:30:00.077Z, 0.002
2023-07-07T03:32:00.037Z, 0.002
2023-07-07T03:34:00.075Z, 0.002
2023-07-07T03:36:00.071Z, 0.002
2023-07-07T03:38:00.044Z, 0.002
2023-07-07T03:40:00.133Z, 0.003
2023-07-07T03:42:00.075Z, 0.003
2023-07-07T03:44:00.128Z, 0.003
2023-07-07T03:46:00.058Z, 0.003
2023-07-07T03:48:00.139Z, 0.004
2023-07-07T03:50:00.093Z, 0.004
2023-07-07T03:52:00.078Z, 0.004
2023-07-07T03:54:00.088Z, 0.005
2023-07-07T03:56:00.067Z, 0.005
2023-07-07T03:58:00.063Z, 0.005
2023-07-07T04:00:00.145Z, 0.005
2023-07-07T04:02:00.097Z, 0.006
2023-07-07T04:04:00.240Z, 0.006
2023-07-07T04:06:00.114Z, 0.012
2023-07-07T04:08:00.076Z, 0.014
2023-07-07T04:10:00.133Z, 0.015
2023-07-07T04:12:00.095Z, 0.016
2023-07-07T04:14:00.098Z, 0.016
2023-07-07T04:16:00.125Z, 0.018
2023-07-07T04:18:00.160Z, 0.019
2023-07-07T04:20:00.097Z, 0.019
2023-07-07T04:22:00.091Z, 0.019
2023-07-07T04:24:00.096Z, 0.021
2023-07-07T04:26:00.075Z, 0.022
2023-07-07T04:28:00.069Z, 0.024
2023-07-07T04:30:00.165Z, 0.025
2023-07-07T04:32:00.133Z, 0.026
2023-07-07T04:34:00.069Z, 0.028
2023-07-07T04:36:00.092Z, 0.029
2023-07-07T04:38:00.092Z, 0.029
2023-07-07T04:40:00.093Z, 0.03
2023-07-07T04:42:00.104Z, 0.031
2023-07-07T04:44:00.069Z, 0.033
2023-07-07T04:46:00.134Z, 0.034
2023-07-07T04:48:00.206Z, 0.034
2023-07-07T04:50:00.130Z, 0.035
2023-07-07T04:52:00.091Z, 0.036
2023-07-07T04:54:00.108Z, 0.037
2023-07-07T04:56:00.079Z, 0.038
2023-07-07T04:58:00.092Z, 0.039
2023-07-07T05:00:00.119Z, 0.041
2023-07-07T05:02:00.208Z, 0.042
2023-07-07T05:04:00.133Z, 0.043
2023-07-07T05:06:00.106Z, 0.045
2023-07-07T05:08:00.094Z, 0.043
2023-07-07T05:10:00.134Z, 0.044
2023-07-07T05:12:01.858Z, 0.051
2023-07-07T05:14:00.232Z, 0.055
2023-07-07T05:16:00.131Z, 0.061
2023-07-07T05:18:00.797Z, 0.07
2023-07-07T05:20:00.100Z, 0.071
2023-07-07T05:22:00.105Z, 0.06
2023-07-07T05:24:00.283Z, 0.048
2023-07-07T05:26:00.256Z, 0.043
2023-07-07T05:28:00.467Z, 0.04
2023-07-07T05:30:00.426Z, 0.037
2023-07-07T05:32:00.145Z, 0.035
2023-07-07T05:34:00.086Z, 0.032
2023-07-07T05:36:00.118Z, 0.032
2023-07-07T05:38:00.090Z, 0.033
2023-07-07T05:40:00.124Z, 0.045
2023-07-07T05:42:00.114Z, 0.046
2023-07-07T05:44:00.082Z, 0.041
2023-07-07T05:46:00.414Z, 0.039
2023-07-07T05:48:00.171Z, 0.038
2023-07-07T05:50:00.094Z, 0.038
2023-07-07T05:52:00.105Z, 0.038
2023-07-07T05:54:00.125Z, 0.038
2023-07-07T05:56:00.095Z, 0.038
2023-07-07T05:58:00.137Z, 0.039
2023-07-07T06:00:00.116Z, 0.04
2023-07-07T06:02:00.266Z, 0.042
2023-07-07T06:04:00.124Z, 0.044
2023-07-07T06:06:00.103Z, 0.045
2023-07-07T06:08:00.080Z, 0.047
2023-07-07T06:10:00.095Z, 0.05
2023-07-07T06:12:00.100Z, 0.055
2023-07-07T06:14:00.140Z, 0.06
2023-07-07T06:16:00.134Z, 0.063
2023-07-07T06:18:02.423Z, 0.077
2023-07-07T06:20:00.101Z, 0.102
2023-07-07T06:22:00.128Z, 0.128
2023-07-07T06:24:00.117Z, 0.136
2023-07-07T06:26:00.099Z, 0.145
2023-07-07T06:28:00.078Z, 0.144
2023-07-07T06:30:00.182Z, 0.141
2023-07-07T06:32:00.124Z, 0.137
2023-07-07T06:34:00.086Z, 0.124
2023-07-07T06:36:00.100Z, 0.124
2023-07-07T06:38:00.114Z, 0.119
2023-07-07T06:40:00.110Z, 0.121
2023-07-07T06:42:00.095Z, 0.119
2023-07-07T06:44:00.074Z, 0.12
2023-07-07T06:46:00.121Z, 0.113
2023-07-07T06:48:00.113Z, 0.115
2023-07-07T06:50:00.110Z, 0.115
2023-07-07T06:52:00.147Z, 0.108
2023-07-07T06:54:00.100Z, 0.116
2023-07-07T06:56:00.071Z, 0.117
2023-07-07T06:58:00.110Z, 0.117
2023-07-07T07:00:00.148Z, 0.117
2023-07-07T07:02:00.092Z, 0.117
2023-07-07T07:04:00.266Z, 0.117
2023-07-07T07:06:00.103Z, 0.116
2023-07-07T07:08:00.088Z, 0.114
2023-07-07T07:10:00.092Z, 0.118
2023-07-07T07:12:00.104Z, 0.121
2023-07-07T07:14:00.151Z, 0.126
2023-07-07T07:16:00.089Z, 0.13
2023-07-07T07:18:00.175Z, 0.122
2023-07-07T07:20:00.101Z, 0.121
2023-07-07T07:22:00.100Z, 0.129
2023-07-07T07:24:00.283Z, 0.128
2023-07-07T07:26:00.101Z, 0.128
2023-07-07T07:28:00.092Z, 0.128
2023-07-07T07:30:00.144Z, 0.13
2023-07-07T07:32:00.109Z, 0.134
2023-07-07T07:34:00.154Z, 0.137
2023-07-07T07:36:00.129Z, 0.142
2023-07-07T07:38:00.086Z, 0.157
2023-07-07T07:40:00.116Z, 0.146
2023-07-07T07:42:00.121Z, 0.131
2023-07-07T07:44:00.106Z, 0.125
2023-07-07T07:46:00.092Z, 0.128
2023-07-07T07:48:00.147Z, 0.128
2023-07-07T07:50:00.131Z, 0.132
2023-07-07T07:52:00.100Z, 0.131
2023-07-07T07:54:00.161Z, 0.132
2023-07-07T07:56:00.097Z, 0.134
2023-07-07T07:58:00.102Z, 0.13
2023-07-07T08:00:00.188Z, 0.13
2023-07-07T08:02:00.170Z, 0.136
2023-07-07T08:04:00.223Z, 0.136
2023-07-07T08:06:00.143Z, 0.137
2023-07-07T08:08:00.099Z, 0.136
2023-07-07T08:10:00.147Z, 0.138
2023-07-07T08:12:00.137Z, 0.139
2023-07-07T08:14:00.119Z, 0.14
2023-07-07T08:16:00.387Z, 0.143
2023-07-07T08:18:00.172Z, 0.139
2023-07-07T08:20:00.219Z, 0.141
2023-07-07T08:22:00.115Z, 0.142
2023-07-07T08:24:00.126Z, 0.142
2023-07-07T08:30:00.149Z, 0.145
2023-07-07T08:32:00.087Z, 0.147
2023-07-07T08:34:02.435Z, 0.147
2023-07-07T08:36:00.311Z, 0.149
2023-07-07T08:38:00.146Z, 0.149
2023-07-07T08:40:00.139Z, 0.145
2023-07-07T08:42:00.120Z, 0.149
2023-07-07T08:44:00.099Z, 0.149
2023-07-07T08:46:00.235Z, 0.151
2023-07-07T08:48:00.250Z, 0.149
2023-07-07T08:50:02.323Z, 0.148
2023-07-07T08:52:00.101Z, 0.146
2023-07-07T08:54:13.285Z, 0.151
2023-07-07T08:56:00.095Z, 0.152
2023-07-07T08:58:00.104Z, 0.153
2023-07-07T09:00:00.151Z, 0.154
2023-07-07T09:02:00.129Z, 0.156
2023-07-07T09:04:01.551Z, 0.156
2023-07-07T09:06:00.118Z, 0.153
2023-07-07T09:08:00.101Z, 0.144
2023-07-07T09:10:00.570Z, 0.162
2023-07-07T09:12:00.128Z, 0.139
2023-07-07T09:14:00.152Z, 0.159
2023-07-07T09:16:00.397Z, 0.163
2023-07-07T09:18:00.164Z, 0.144
2023-07-07T09:20:00.111Z, 0.165
2023-07-07T09:22:00.096Z, 0.152
2023-07-07T09:24:00.140Z, 0.154
2023-07-07T09:26:00.126Z, 0.14
2023-07-07T09:28:00.093Z, 0.162
2023-07-07T09:30:00.122Z, 0.161
2023-07-07T09:32:00.135Z, 0.161
2023-07-07T09:34:00.091Z, 0.161
2023-07-07T09:36:00.150Z, 0.154
2023-07-07T09:38:00.103Z, 0.159
2023-07-07T09:40:01.477Z, 0.162
2023-07-07T09:42:00.121Z, 0.159
2023-07-07T09:44:00.103Z, 0.158
2023-07-07T09:46:00.298Z, 0.159
2023-07-07T09:48:00.153Z, 0.162
2023-07-07T09:50:00.114Z, 0.163
2023-07-07T09:52:00.395Z, 0.162
2023-07-07T09:54:00.144Z, 0.163
2023-07-07T09:56:00.311Z, 0.164
2023-07-07T09:58:00.421Z, 0.161
2023-07-07T10:00:00.178Z, 0.166
2023-07-07T10:02:00.172Z, 0.168
2023-07-07T10:04:00.141Z, 0.161
2023-07-07T10:06:00.483Z, 0.165
2023-07-07T10:08:00.108Z, 0.163
2023-07-07T10:10:00.147Z, 0.173
2023-07-07T10:14:00.257Z, 0.167
2023-07-07T10:16:00.362Z, 0.168
2023-07-07T10:18:00.355Z, 0.169
2023-07-07T10:20:00.132Z, 0.167
2023-07-07T10:22:00.122Z, 0.168
2023-07-07T10:24:00.567Z, 0.168
2023-07-07T10:26:00.407Z, 0.165
2023-07-07T10:28:00.114Z, 0.163
2023-07-07T10:30:00.144Z, 0.162
2023-07-07T10:32:00.133Z, 0.156
2023-07-07T10:34:00.103Z, 0.155
2023-07-07T10:36:00.873Z, 0.169
2023-07-07T10:38:00.102Z, 0.165
2023-07-07T10:40:00.128Z, 0.167
2023-07-07T10:42:00.134Z, 0.166
2023-07-07T10:44:00.098Z, 0.167
2023-07-07T10:46:00.143Z, 0.167
2023-07-07T10:48:00.226Z, 0.164
2023-07-07T10:50:00.150Z, 0.161
2023-07-07T10:52:00.130Z, 0.164
2023-07-07T10:54:00.463Z, 0.167
2023-07-07T10:56:00.102Z, 0.165
2023-07-07T10:58:00.095Z, 0.163
2023-07-07T11:00:00.139Z, 0.168
2023-07-07T11:02:00.156Z, 0.169
2023-07-07T11:04:00.190Z, 0.163
2023-07-07T11:08:00.089Z, 0.164
2023-07-07T11:10:01.171Z, 0.17
2023-07-07T11:12:00.116Z, 0.157
2023-07-07T11:14:00.139Z, 0.154
2023-07-07T11:16:00.093Z, 0.165
2023-07-07T11:18:00.154Z, 0.161
2023-07-07T11:20:00.126Z, 0.163
2023-07-07T11:22:00.091Z, 0.17
2023-07-07T11:24:00.116Z, 0.165
2023-07-07T11:26:00.075Z, 0.161
2023-07-07T11:28:00.148Z, 0.161
2023-07-07T11:30:00.143Z, 0.164
2023-07-07T11:32:00.079Z, 0.162
2023-07-07T11:34:00.084Z, 0.165
2023-07-07T11:36:00.104Z, 0.163
2023-07-07T11:38:00.076Z, 0.162
2023-07-07T11:40:00.107Z, 0.157
2023-07-07T11:42:00.119Z, 0.163
2023-07-07T11:44:00.089Z, 0.165
2023-07-07T11:46:00.114Z, 0.165
2023-07-07T11:48:00.138Z, 0.166
2023-07-07T11:50:00.108Z, 0.164
2023-07-07T11:52:00.097Z, 0.166
2023-07-07T11:54:00.100Z, 0.165
2023-07-07T11:56:00.079Z, 0.168
2023-07-07T11:58:00.095Z, 0.165
2023-07-07T12:00:00.166Z, 0.166
2023-07-07T12:02:00.119Z, 0.164
2023-07-07T12:04:00.259Z, 0.132
2023-07-07T12:06:00.440Z, 0.156
2023-07-07T12:08:00.108Z, 0.169
2023-07-07T12:10:00.098Z, 0.163
2023-07-07T12:12:00.131Z, 0.16
2023-07-07T12:14:00.182Z, 0.161
2023-07-07T12:16:00.238Z, 0.158
2023-07-07T12:18:00.188Z, 0.158
2023-07-07T12:20:00.113Z, 0.168
2023-07-07T12:22:00.112Z, 0.157
2023-07-07T12:24:00.121Z, 0.16
2023-07-07T12:26:00.247Z, 0.156
2023-07-07T12:28:00.113Z, 0.157
2023-07-07T12:30:00.146Z, 0.161
2023-07-07T12:32:00.140Z, 0.159
2023-07-07T12:34:00.108Z, 0.154
2023-07-07T12:36:00.749Z, 0.157
2023-07-07T12:38:00.146Z, 0.151
2023-07-07T12:40:00.111Z, 0.157
2023-07-07T12:42:00.119Z, 0.159
2023-07-07T12:44:00.112Z, 0.156
2023-07-07T12:46:00.447Z, 0.157
2023-07-07T12:48:00.243Z, 0.157
2023-07-07T12:50:00.132Z, 0.158
2023-07-07T12:52:00.117Z, 0.157
2023-07-07T12:54:00.120Z, 0.154
2023-07-07T12:56:00.445Z, 0.148
2023-07-07T13:41:11.308Z, 0.153
2023-07-07T13:41:11.657Z, 0.153
2023-07-07T13:41:11.848Z, 0.153
2023-07-07T13:41:11.960Z, 0.153
2023-07-07T13:41:12.112Z, 0.153
2023-07-07T13:41:12.266Z, 0.153
2023-07-07T13:44:00.109Z, 0.15
2023-07-07T13:46:00.417Z, 0.149
2023-07-07T13:48:00.186Z, 0.147
2023-07-07T13:50:00.162Z, 0.15
2023-07-07T13:52:00.090Z, 0.147
2023-07-07T13:54:00.104Z, 0.147
2023-07-07T13:56:00.458Z, 0.148
2023-07-07T13:58:00.103Z, 0.15
2023-07-07T14:00:00.114Z, 0.147
2023-07-07T14:02:00.106Z, 0.15
2023-07-07T14:04:00.204Z, 0.15
2023-07-07T14:06:23.018Z, 0.148
2023-07-07T14:08:00.101Z, 0.149
2023-07-07T14:10:00.101Z, 0.159
2023-07-07T14:12:00.096Z, 0.178
2023-07-07T14:14:00.137Z, 0.169
2023-07-07T14:16:02.090Z, 0.164
2023-07-07T14:18:00.223Z, 0.162
2023-07-07T14:20:00.124Z, 0.142
2023-07-07T14:22:00.341Z, 0.164
2023-07-07T14:24:00.102Z, 0.165
2023-07-07T14:26:00.467Z, 0.156
2023-07-07T14:28:00.086Z, 0.155
2023-07-07T14:30:00.158Z, 0.157
2023-07-07T14:32:00.121Z, 0.157
2023-07-07T14:34:00.083Z, 0.155
2023-07-07T14:36:00.344Z, 0.155
2023-07-07T14:38:00.084Z, 0.153
2023-07-07T14:40:00.137Z, 0.157
2023-07-07T14:42:00.114Z, 0.152
2023-07-07T14:44:00.105Z, 0.161
2023-07-07T14:46:00.266Z, 0.164
2023-07-07T14:48:00.147Z, 0.169
2023-07-07T14:50:00.088Z, 0.167
2023-07-07T14:52:00.097Z, 0.169
2023-07-07T14:54:00.109Z, 0.169
2023-07-07T14:56:00.334Z, 0.166
2023-07-07T14:58:00.093Z, 0.149
2023-07-07T15:00:00.147Z, 0.146
2023-07-07T15:02:00.153Z, 0.137
2023-07-07T15:04:00.100Z, 0.126
2023-07-07T15:06:00.395Z, 0.11
2023-07-07T15:08:00.075Z, 0.104
2023-07-07T15:10:00.086Z, 0.098
2023-07-07T15:12:00.120Z, 0.089
2023-07-07T15:14:00.161Z, 0.082
2023-07-07T15:16:00.485Z, 0.076
2023-07-07T15:18:00.163Z, 0.072
2023-07-07T15:20:00.103Z, 0.068
2023-07-07T15:22:00.080Z, 0.066
2023-07-07T15:24:00.110Z, 0.063
2023-07-07T15:26:00.241Z, 0.061
2023-07-07T15:28:00.097Z, 0.059
2023-07-07T15:30:00.158Z, 0.057
2023-07-07T15:32:00.219Z, 0.055
2023-07-07T15:34:00.112Z, 0.054
2023-07-07T15:36:00.356Z, 0.053
2023-07-07T15:38:00.089Z, 0.052
2023-07-07T15:40:00.118Z, 0.051
2023-07-07T15:42:00.107Z, 0.05
2023-07-07T15:44:00.081Z, 0.049
2023-07-07T15:46:00.342Z, 0.049
2023-07-07T15:48:00.132Z, 0.049
2023-07-07T15:50:00.185Z, 0.049
2023-07-07T15:52:00.119Z, 0.048
2023-07-07T15:54:00.224Z, 0.046
2023-07-07T15:56:00.377Z, 0.045
2023-07-07T15:58:00.109Z, 0.048
2023-07-07T16:00:00.350Z, 0.049
2023-07-07T16:02:00.130Z, 0.049
2023-07-07T16:04:00.163Z, 0.05
2023-07-07T16:06:00.456Z, 0.052
2023-07-07T16:08:00.086Z, 0.051
2023-07-07T16:10:00.118Z, 0.049
2023-07-07T16:12:00.094Z, 0.049
2023-07-07T16:14:00.167Z, 0.051
2023-07-07T16:16:00.431Z, 0.058
2023-07-07T16:18:00.118Z, 0.056
2023-07-07T16:20:00.101Z, 0.048
2023-07-07T16:22:00.102Z, 0.042
2023-07-07T16:24:00.158Z, 0.046
2023-07-07T16:26:00.678Z, 0.048
2023-07-07T16:28:00.085Z, 0.052
2023-07-07T16:30:00.172Z, 0.053
2023-07-07T16:32:00.225Z, 0.055
2023-07-07T16:34:00.096Z, 0.05
2023-07-07T16:36:00.123Z, 0.054
2023-07-07T16:38:00.422Z, 0.056
2023-07-07T16:40:01.946Z, 0.051
2023-07-07T16:42:00.106Z, 0.047
2023-07-07T16:44:00.105Z, 0.05
2023-07-07T16:46:00.138Z, 0.047
2023-07-07T16:48:00.156Z, 0.054
2023-07-07T16:50:00.089Z, 0.049
2023-07-07T16:52:00.081Z, 0.037
2023-07-07T16:54:01.918Z, 0.03
2023-07-07T16:56:00.089Z, 0.031
2023-07-07T16:58:00.101Z, 0.03
2023-07-07T17:00:00.110Z, 0.029
2023-07-07T17:02:00.091Z, 0.028
2023-07-07T17:04:00.316Z, 0.028
2023-07-07T17:06:01.808Z, 0.03
2023-07-07T17:08:00.090Z, 0.031
2023-07-07T17:10:00.095Z, 0.03
2023-07-07T17:12:01.755Z, 0.032
2023-07-07T17:14:00.277Z, 0.032
2023-07-07T17:16:00.097Z, 0.031
2023-07-07T17:18:01.658Z, 0.029
2023-07-07T17:20:00.094Z, 0.029
2023-07-07T17:22:00.284Z, 0.028
2023-07-07T17:24:00.098Z, 0.024
2023-07-07T17:26:00.095Z, 0.022
2023-07-07T17:28:00.109Z, 0.022
2023-07-07T17:30:00.196Z, 0.021
2023-07-07T17:32:00.097Z, 0.02
2023-07-07T17:34:00.091Z, 0.02
2023-07-07T17:36:00.094Z, 0.02
2023-07-07T17:38:00.365Z, 0.02
2023-07-07T17:40:00.139Z, 0.019
2023-07-07T17:42:00.151Z, 0.018
2023-07-07T17:44:00.086Z, 0.016
2023-07-07T17:46:00.092Z, 0.015
2023-07-07T17:48:00.218Z, 0.015
2023-07-07T17:50:00.117Z, 0.015
2023-07-07T17:52:00.095Z, 0.016
2023-07-07T17:54:00.117Z, 0.017
2023-07-07T17:56:00.107Z, 0.019
2023-07-07T17:58:00.107Z, 0.018
2023-07-07T18:00:00.322Z, 0.016
2023-07-07T18:02:00.164Z, 0.017
2023-07-07T18:04:00.135Z, 0.019
2023-07-07T18:06:00.092Z, 0.02
2023-07-07T18:08:00.086Z, 0.021
2023-07-07T18:10:00.119Z, 0.021
2023-07-07T18:12:00.106Z, 0.021
2023-07-07T18:14:00.175Z, 0.021
2023-07-07T18:16:00.121Z, 0.02
2023-07-07T18:18:20.369Z, 0.019
2023-07-07T18:20:34.432Z, 0.019
2023-07-07T18:22:03.041Z, 0.017
2023-07-07T18:24:00.173Z, 0.016
2023-07-07T18:26:00.387Z, 0.016
2023-07-07T18:48:00.232Z, 0.015
2023-07-07T18:50:00.091Z, 0.015
2023-07-07T18:52:00.079Z, 0.008
2023-07-07T18:54:00.112Z, 0.007
2023-07-07T18:56:00.312Z, 0.007
2023-07-07T18:58:00.094Z, 0.007
2023-07-07T19:00:00.123Z, 0.006
2023-07-07T19:02:00.169Z, 0.006
2023-07-07T19:04:00.162Z, 0.006
2023-07-07T19:06:00.266Z, 0.005
2023-07-07T19:08:00.106Z, 0.005
2023-07-07T19:10:00.095Z, 0.004
2023-07-07T19:12:00.108Z, 0.004
2023-07-07T19:14:00.162Z, 0.004
2023-07-07T19:16:00.396Z, 0.003
2023-07-07T19:18:00.167Z, 0.003
2023-07-07T19:20:00.134Z, 0.003
2023-07-07T19:22:00.082Z, 0.003
2023-07-07T19:24:00.102Z, 0.002
2023-07-07T19:26:00.444Z, 0.002
2023-07-07T19:28:00.079Z, 0.002
2023-07-07T19:30:00.162Z, 0.002
2023-07-07T19:32:00.133Z, 0.001
2023-07-07T19:34:00.090Z, 0.001
2023-07-07T19:36:00.438Z, 0.001
2023-07-07T19:38:00.082Z, 0.001
2023-07-07T19:40:00.097Z, 0.001
2023-07-07T19:42:00.111Z, 0.001
2023-07-07T19:44:00.102Z, 0.001
2023-07-07T19:46:00.486Z, 0.001
2023-07-07T19:48:00.132Z, 0
2023-07-07T19:50:00.091Z, 0
2023-07-07T19:52:00.089Z, 0
2023-07-07T19:54:00.110Z, 0
2023-07-07T19:56:00.303Z, 0
2023-07-07T19:58:00.108Z, 0
2023-07-07T20:00:00.107Z, 0
2023-07-07T20:02:00.144Z, 0
2023-07-07T20:04:00.182Z, 0
2023-07-07T20:06:00.201Z, 0
2023-07-07T20:08:00.094Z, 0
2023-07-07T20:10:00.092Z, 0
2023-07-07T20:12:00.093Z, 0
2023-07-07T20:14:00.099Z, 0
2023-07-07T20:16:00.319Z, 0
2023-07-07T20:18:00.154Z, 0
2023-07-07T20:20:00.144Z, 0
2023-07-07T20:22:00.092Z, 0
2023-07-07T20:26:00.471Z, 0
2023-07-07T20:28:00.127Z, 0
2023-07-07T20:30:00.281Z, 0
2023-07-07T20:32:00.241Z, 0
2023-07-07T20:34:00.132Z, 0
2023-07-07T20:36:00.373Z, 0
2023-07-07T20:38:00.095Z, 0
2023-07-07T20:40:00.102Z, 0
2023-07-07T20:42:00.114Z, 0
2023-07-07T20:44:00.091Z, 0
2023-07-07T20:46:00.270Z, 0
2023-07-07T20:48:00.135Z, 0
2023-07-07T20:50:00.131Z, 0
2023-07-07T20:52:00.098Z, 0
2023-07-07T20:54:00.104Z, 0
2023-07-07T20:56:00.386Z, 0
2023-07-07T20:58:00.088Z, 0
2023-07-07T21:00:00.137Z, 0
2023-07-07T21:02:00.264Z, 0
2023-07-07T21:04:00.133Z, 0
2023-07-07T21:06:00.199Z, 0
2023-07-07T21:08:00.089Z, 0
2023-07-07T21:10:00.105Z, 0
2023-07-07T21:12:00.123Z, 0
2023-07-07T21:14:00.213Z, 0
2023-07-07T21:16:00.183Z, 0
2023-07-07T21:18:00.128Z, 0
2023-07-07T21:20:00.094Z, 0
2023-07-07T21:22:00.107Z, 0
2023-07-07T21:24:00.111Z, 0
2023-07-07T21:26:00.083Z, 0
2023-07-07T21:28:00.115Z, 0
2023-07-07T21:30:00.139Z, 0
2023-07-07T21:32:00.153Z, 0
2023-07-07T21:34:00.090Z, 0
2023-07-07T21:36:00.127Z, 0
2023-07-07T21:38:00.103Z, 0
2023-07-07T21:40:00.093Z, 0
2023-07-07T21:42:11.562Z, 0
2023-07-07T21:44:00.076Z, 0
2023-07-07T21:46:00.169Z, 0
2023-07-07T21:48:00.167Z, 0
2023-07-07T21:50:00.117Z, 0
2023-07-07T21:52:01.892Z, 0
2023-07-07T21:54:00.105Z, 0
2023-07-07T21:56:00.088Z, 0
2023-07-07T21:58:00.087Z, 0
2023-07-07T22:00:00.145Z, 0
2023-07-07T22:02:00.089Z, 0
2023-07-07T22:04:00.087Z, 0
2023-07-07T22:06:00.105Z, 0
2023-07-07T22:08:00.084Z, 0
2023-07-07T22:10:00.089Z, 0
2023-07-07T22:12:00.100Z, 0
2023-07-07T22:14:00.133Z, 0
2023-07-07T22:16:00.086Z, 0
2023-07-07T22:18:00.183Z, 0
2023-07-07T22:20:00.091Z, 0
2023-07-07T22:22:00.093Z, 0
2023-07-07T22:24:00.127Z, 0
2023-07-07T22:26:00.113Z, 0
2023-07-07T22:28:00.083Z, 0
2023-07-07T22:30:00.103Z, 0
2023-07-07T22:32:00.093Z, 0
2023-07-07T22:34:00.149Z, 0
2023-07-07T22:36:00.103Z, 0
2023-07-07T22:38:00.116Z, 0
2023-07-07T22:40:00.091Z, 0
2023-07-07T22:42:00.116Z, 0
2023-07-07T22:44:00.080Z, 0
2023-07-07T22:46:00.088Z, 0
2023-07-07T22:48:00.191Z, 0
2023-07-07T22:50:00.085Z, 0
2023-07-07T22:52:00.083Z, 0
2023-07-07T22:54:00.099Z, 0
2023-07-07T22:56:00.079Z, 0
2023-07-07T22:58:00.100Z, 0
2023-07-07T23:00:00.128Z, 0
2023-07-07T23:02:00.084Z, 0
2023-07-07T23:04:00.146Z, 0
2023-07-07T23:06:00.104Z, 0
2023-07-07T23:08:00.083Z, 0
2023-07-07T23:10:00.088Z, 0
2023-07-07T23:12:00.105Z, 0
2023-07-07T23:14:00.171Z, 0
2023-07-07T23:16:00.206Z, 0
2023-07-07T23:18:00.174Z, 0
2023-07-07T23:20:00.095Z, 0
2023-07-07T23:22:00.082Z, 0
2023-07-07T23:24:00.105Z, 0
2023-07-07T23:26:00.105Z, 0
2023-07-07T23:28:00.092Z, 0
2023-07-07T23:30:00.135Z, 0
2023-07-07T23:32:00.076Z, 0
2023-07-07T23:34:00.102Z, 0
2023-07-07T23:36:00.113Z, 0
2023-07-07T23:38:00.086Z, 0
2023-07-07T23:40:00.120Z, 0
2023-07-07T23:42:00.096Z, 0
2023-07-07T23:44:00.088Z, 0
2023-07-07T23:46:00.087Z, 0
2023-07-07T23:48:01.795Z, 0
2023-07-07T23:50:00.085Z, 0
2023-07-07T23:52:00.080Z, 0
2023-07-07T23:54:00.090Z, 0
2023-07-07T23:56:00.082Z, 0
2023-07-07T23:58:00.080Z, 0
